createdAt,value
2022-08-03T00:00:51.980Z,991.15
2022-08-03T00:01:53.819Z,991.15
2022-08-03T00:02:55.634Z,991.12
2022-08-03T00:03:57.397Z,991.11
2022-08-03T00:04:59.547Z,991.17
2022-08-03T00:06:03.901Z,991.1
2022-08-03T00:07:02.531Z,991.12
2022-08-03T00:08:04.137Z,991.12
2022-08-03T00:09:05.821Z,991.15
2022-08-03T00:10:07.607Z,991.13
2022-08-03T00:11:09.464Z,991.14
2022-08-03T00:12:11.146Z,991.13
2022-08-03T00:13:12.815Z,991.1
2022-08-03T00:14:14.547Z,991.11
2022-08-03T00:15:17.128Z,991.1
2022-08-03T00:16:18.118Z,991.12
2022-08-03T00:17:19.752Z,991.11
2022-08-03T00:18:21.613Z,991.12
2022-08-03T00:19:23.225Z,991.13
2022-08-03T00:20:25.028Z,991.08
2022-08-03T00:21:26.820Z,991.1
2022-08-03T00:22:28.612Z,991.08
2022-08-03T00:23:51.184Z,991.08
2022-08-03T00:24:32.024Z,991.08
2022-08-03T00:25:33.576Z,991.05
2022-08-03T00:26:35.438Z,991.06
2022-08-03T00:27:37.167Z,991.04
2022-08-03T00:28:38.826Z,991.03
2022-08-03T00:30:00.128Z,991.05
2022-08-03T00:30:42.374Z,991.01
2022-08-03T00:31:52.738Z,991.04
2022-08-03T00:32:45.834Z,991.02
2022-08-03T00:33:58.800Z,991.04
2022-08-03T00:34:58.869Z,991.05
2022-08-03T00:35:51.265Z,991.03
2022-08-03T00:36:52.818Z,991.08
2022-08-03T00:37:54.636Z,991.08
2022-08-03T00:38:56.184Z,991.05
2022-08-03T00:39:59.854Z,991.05
2022-08-03T00:40:59.839Z,991.08
2022-08-03T00:42:01.555Z,991.04
2022-08-03T00:43:03.290Z,991.04
2022-08-03T00:44:04.855Z,991.06
2022-08-03T00:45:06.587Z,991.05
2022-08-03T00:46:08.381Z,991.03
2022-08-03T00:47:10.160Z,991.04
2022-08-03T00:48:19.545Z,991.04
2022-08-03T00:49:13.590Z,991.03
2022-08-03T00:50:15.322Z,991.01
2022-08-03T00:51:17.090Z,991.04
2022-08-03T00:52:19.045Z,991.02
2022-08-03T00:53:20.599Z,990.96
2022-08-03T00:54:22.253Z,991.02
2022-08-03T00:55:23.921Z,990.97
2022-08-03T00:56:25.796Z,991.02
2022-08-03T00:57:27.462Z,990.99
2022-08-03T00:58:29.218Z,990.98
2022-08-03T00:59:30.990Z,990.93
2022-08-03T01:00:32.667Z,990.96
2022-08-03T01:01:34.507Z,991
2022-08-03T01:02:36.203Z,990.92
2022-08-03T01:03:37.977Z,990.99
2022-08-03T01:04:39.820Z,990.97
2022-08-03T01:05:41.348Z,990.96
2022-08-03T01:06:42.943Z,991.01
2022-08-03T01:07:44.814Z,990.96
2022-08-03T01:08:46.471Z,990.98
2022-08-03T01:09:48.328Z,990.97
2022-08-03T01:10:49.836Z,991
2022-08-03T01:12:00.147Z,990.96
2022-08-03T01:12:53.435Z,990.93
2022-08-03T01:14:04.530Z,990.95
2022-08-03T01:14:57.012Z,990.91
2022-08-03T01:15:58.691Z,990.93
2022-08-03T01:17:00.488Z,990.91
2022-08-03T01:18:02.362Z,990.9
2022-08-03T01:19:03.887Z,990.89
2022-08-03T01:20:05.729Z,990.9
2022-08-03T01:21:07.356Z,990.89
2022-08-03T01:22:09.091Z,990.89
2022-08-03T01:23:10.852Z,990.9
2022-08-03T01:24:12.497Z,990.9
2022-08-03T01:25:14.303Z,990.94
2022-08-03T01:26:15.961Z,990.94
2022-08-03T01:27:17.864Z,990.92
2022-08-03T01:28:19.839Z,990.92
2022-08-03T01:29:21.300Z,990.97
2022-08-03T01:30:23.028Z,990.93
2022-08-03T01:31:24.763Z,990.91
2022-08-03T01:32:53.615Z,990.96
2022-08-03T01:33:28.159Z,990.94
2022-08-03T01:34:30.093Z,990.91
2022-08-03T01:35:31.713Z,990.92
2022-08-03T01:36:33.437Z,990.97
2022-08-03T01:37:35.188Z,990.97
2022-08-03T01:38:36.945Z,990.97
2022-08-03T01:39:38.386Z,990.97
2022-08-03T01:40:40.186Z,990.98
2022-08-03T01:41:42.021Z,990.91
2022-08-03T01:42:43.922Z,990.92
2022-08-03T01:44:28.057Z,990.94
2022-08-03T01:44:47.267Z,990.89
2022-08-03T01:45:49.089Z,990.9
2022-08-03T01:46:50.888Z,990.86
2022-08-03T01:47:52.479Z,990.88
2022-08-03T01:48:54.303Z,990.84
2022-08-03T01:49:55.977Z,990.86
2022-08-03T01:50:57.732Z,990.83
2022-08-03T01:52:13.296Z,990.8
2022-08-03T01:53:01.397Z,990.81
2022-08-03T01:54:02.907Z,990.81
2022-08-03T01:55:04.594Z,990.84
2022-08-03T01:56:06.403Z,990.78
2022-08-03T01:57:08.126Z,990.83
2022-08-03T01:58:10.126Z,990.85
2022-08-03T01:59:11.529Z,990.81
2022-08-03T02:00:13.827Z,990.82
2022-08-03T02:01:15.424Z,990.83
2022-08-03T02:02:33.101Z,990.78
2022-08-03T02:03:19.193Z,990.74
2022-08-03T02:04:20.623Z,990.76
2022-08-03T02:05:22.453Z,990.81
2022-08-03T02:07:01.743Z,990.78
2022-08-03T02:07:26.100Z,990.77
2022-08-03T02:08:27.729Z,990.77
2022-08-03T02:09:29.974Z,990.74
2022-08-03T02:10:35.095Z,990.72
2022-08-03T02:11:32.960Z,990.74
2022-08-03T02:12:34.569Z,990.73
2022-08-03T02:13:36.316Z,990.73
2022-08-03T02:14:37.835Z,990.74
2022-08-03T02:15:39.355Z,990.77
2022-08-03T02:16:41.357Z,990.79
2022-08-03T02:17:42.989Z,990.8
2022-08-03T02:18:44.863Z,990.81
2022-08-03T02:19:46.347Z,990.83
2022-08-03T02:20:47.963Z,990.8
2022-08-03T02:21:55.875Z,990.83
2022-08-03T02:22:51.507Z,990.84
2022-08-03T02:23:53.257Z,990.81
2022-08-03T02:24:54.853Z,990.83
2022-08-03T02:25:56.787Z,990.78
2022-08-03T02:26:58.675Z,990.81
2022-08-03T02:28:00.816Z,990.8
2022-08-03T02:29:02.434Z,990.83
2022-08-03T02:30:03.940Z,990.86
2022-08-03T02:31:06.166Z,990.82
2022-08-03T02:32:07.269Z,990.84
2022-08-03T02:33:09.613Z,990.83
2022-08-03T02:34:11.439Z,990.8
2022-08-03T02:35:12.641Z,990.78
2022-08-03T02:36:14.556Z,990.8
2022-08-03T02:37:16.227Z,990.81
2022-08-03T02:38:18.399Z,990.78
2022-08-03T02:39:19.938Z,990.82
2022-08-03T02:40:21.741Z,990.79
2022-08-03T02:41:23.650Z,990.83
2022-08-03T02:42:25.035Z,990.83
2022-08-03T02:43:26.396Z,990.85
2022-08-03T02:44:28.596Z,990.84
2022-08-03T02:45:29.846Z,990.83
2022-08-03T02:46:32.096Z,990.84
2022-08-03T02:47:54.320Z,990.81
2022-08-03T02:48:35.134Z,990.82
2022-08-03T02:49:50.015Z,990.79
2022-08-03T02:50:38.979Z,990.78
2022-08-03T02:51:41.215Z,990.73
2022-08-03T02:52:42.877Z,990.78
2022-08-03T02:53:43.950Z,990.77
2022-08-03T02:54:46.101Z,990.75
2022-08-03T02:55:47.744Z,990.77
2022-08-03T02:56:49.469Z,990.76
2022-08-03T02:57:51.311Z,990.78
2022-08-03T02:58:53.020Z,990.79
2022-08-03T02:59:54.647Z,990.73
2022-08-03T03:00:56.192Z,990.76
2022-08-03T03:01:58.088Z,990.72
2022-08-03T03:03:00.403Z,990.76
2022-08-03T03:04:01.838Z,990.76
2022-08-03T03:05:54.519Z,990.73
2022-08-03T03:06:05.704Z,990.76
2022-08-03T03:07:06.549Z,990.73
2022-08-03T03:08:17.749Z,990.78
2022-08-03T03:09:10.000Z,990.76
2022-08-03T03:10:11.898Z,990.75
2022-08-03T03:11:13.650Z,990.75
2022-08-03T03:12:15.309Z,990.73
2022-08-03T03:13:17.048Z,990.73
2022-08-03T03:14:18.099Z,990.74
2022-08-03T03:15:20.426Z,990.7
2022-08-03T03:16:21.897Z,990.73
2022-08-03T03:17:23.715Z,990.71
2022-08-03T03:18:25.347Z,990.73
2022-08-03T03:19:27.090Z,990.73
2022-08-03T03:20:30.064Z,990.74
2022-08-03T03:21:30.953Z,990.74
2022-08-03T03:22:32.101Z,990.73
2022-08-03T03:23:34.202Z,990.76
2022-08-03T03:24:36.003Z,990.75
2022-08-03T03:25:37.328Z,990.72
2022-08-03T03:26:42.382Z,990.68
2022-08-03T03:27:40.853Z,990.73
2022-08-03T03:28:42.732Z,990.68
2022-08-03T03:29:44.435Z,990.7
2022-08-03T03:30:52.766Z,990.69
2022-08-03T03:31:47.925Z,990.68
2022-08-03T03:32:52.181Z,990.7
2022-08-03T03:33:51.305Z,990.67
2022-08-03T03:34:53.113Z,990.69
2022-08-03T03:35:54.858Z,990.69
2022-08-03T03:36:56.467Z,990.64
2022-08-03T03:37:58.358Z,990.71
2022-08-03T03:38:59.976Z,990.7
2022-08-03T03:40:01.692Z,990.71
2022-08-03T03:41:04.382Z,990.75
2022-08-03T03:42:05.081Z,990.73
2022-08-03T03:43:06.930Z,990.72
2022-08-03T03:44:08.545Z,990.73
2022-08-03T03:45:10.664Z,990.72
2022-08-03T03:46:12.022Z,990.74
2022-08-03T03:47:13.869Z,990.75
2022-08-03T03:48:15.392Z,990.75
2022-08-03T03:49:17.303Z,990.71
2022-08-03T03:50:19.117Z,990.74
2022-08-03T03:51:20.924Z,990.76
2022-08-03T03:52:22.396Z,990.78
2022-08-03T03:53:24.195Z,990.77
2022-08-03T03:54:28.998Z,990.78
2022-08-03T03:55:27.644Z,990.8
2022-08-03T03:56:29.367Z,990.74
2022-08-03T03:57:31.302Z,990.78
2022-08-03T03:58:32.999Z,990.77
2022-08-03T03:59:34.586Z,990.78
2022-08-03T04:00:36.262Z,990.8
2022-08-03T04:01:38.240Z,990.78
2022-08-03T04:02:39.817Z,990.77
2022-08-03T04:03:41.671Z,990.73
2022-08-03T04:04:43.492Z,990.74
2022-08-03T04:05:46.011Z,990.78
2022-08-03T04:06:46.874Z,990.75
2022-08-03T04:07:48.642Z,990.78
2022-08-03T04:08:50.698Z,990.75
2022-08-03T04:09:52.392Z,990.76
2022-08-03T04:10:54.007Z,990.75
2022-08-03T04:11:55.713Z,990.78
2022-08-03T04:12:57.021Z,990.78
2022-08-03T04:14:02.024Z,990.77
2022-08-03T04:15:01.154Z,990.8
2022-08-03T04:16:05.647Z,990.76
2022-08-03T04:17:04.582Z,990.8
2022-08-03T04:18:06.359Z,990.77
2022-08-03T04:19:07.552Z,990.77
2022-08-03T04:20:09.437Z,990.77
2022-08-03T04:21:11.096Z,990.72
2022-08-03T04:22:13.225Z,990.72
2022-08-03T04:23:15.590Z,990.73
2022-08-03T04:24:16.363Z,990.77
2022-08-03T04:25:18.075Z,990.75
2022-08-03T04:26:19.556Z,990.77
2022-08-03T04:27:21.596Z,990.75
2022-08-03T04:28:31.217Z,990.75
2022-08-03T04:29:25.125Z,990.71
2022-08-03T04:30:26.451Z,990.75
2022-08-03T04:31:28.406Z,990.77
2022-08-03T04:32:30.393Z,990.75
2022-08-03T04:33:32.443Z,990.77
2022-08-03T04:34:33.789Z,990.79
2022-08-03T04:36:01.677Z,990.75
2022-08-03T04:36:37.043Z,990.8
2022-08-03T04:37:38.832Z,990.77
2022-08-03T04:38:40.961Z,990.78
2022-08-03T04:39:42.301Z,990.79
2022-08-03T04:40:44.022Z,990.77
2022-08-03T04:42:07.294Z,990.85
2022-08-03T04:42:47.326Z,990.85
2022-08-03T04:43:49.221Z,990.92
2022-08-03T04:44:51.383Z,990.91
2022-08-03T04:45:52.828Z,990.93
2022-08-03T04:46:54.779Z,990.92
2022-08-03T04:47:55.967Z,990.94
2022-08-03T04:48:58.193Z,990.95
2022-08-03T04:49:59.906Z,990.99
2022-08-03T04:51:01.749Z,990.94
2022-08-03T04:52:03.531Z,990.94
2022-08-03T04:53:05.814Z,990.93
2022-08-03T04:54:06.726Z,990.96
2022-08-03T04:55:08.623Z,990.98
2022-08-03T04:56:10.534Z,991.01
2022-08-03T04:57:22.558Z,991.06
2022-08-03T04:58:13.871Z,991.01
2022-08-03T04:59:15.698Z,990.98
2022-08-03T05:00:17.073Z,991
2022-08-03T05:01:19.098Z,991.03
2022-08-03T05:02:21.180Z,991.01
2022-08-03T05:03:24.365Z,991.04
2022-08-03T05:04:24.024Z,991.05
2022-08-03T05:05:26.019Z,991.03
2022-08-03T05:06:27.266Z,991.06
2022-08-03T05:07:35.445Z,991.04
2022-08-03T05:08:31.211Z,991.05
2022-08-03T05:09:50.237Z,991.04
2022-08-03T05:10:34.254Z,991.07
2022-08-03T05:11:36.396Z,991.09
2022-08-03T05:12:37.854Z,991.08
2022-08-03T05:13:39.330Z,991.07
2022-08-03T05:14:41.285Z,991.09
2022-08-03T05:15:43.412Z,991.09
2022-08-03T05:16:44.632Z,991.09
2022-08-03T05:17:46.657Z,991.14
2022-08-03T05:18:48.236Z,991.14
2022-08-03T05:19:49.806Z,991.15
2022-08-03T05:20:52.018Z,991.11
2022-08-03T05:21:53.651Z,991.11
2022-08-03T05:22:55.333Z,991.07
2022-08-03T05:23:56.817Z,991.11
2022-08-03T05:24:58.759Z,991.12
2022-08-03T05:26:01.065Z,991.15
2022-08-03T05:27:02.421Z,991.19
2022-08-03T05:28:04.148Z,991.19
2022-08-03T05:29:06.131Z,991.16
2022-08-03T05:30:31.078Z,991.14
2022-08-03T05:31:09.163Z,991.18
2022-08-03T05:32:10.366Z,991.11
2022-08-03T05:33:12.613Z,991.14
2022-08-03T05:34:14.292Z,991.15
2022-08-03T05:35:55.942Z,991.19
2022-08-03T05:36:17.639Z,991.14
2022-08-03T05:37:19.252Z,991.19
2022-08-03T05:38:24.256Z,991.21
2022-08-03T05:39:23.064Z,991.22
2022-08-03T05:40:24.663Z,991.21
2022-08-03T05:41:36.593Z,991.2
2022-08-03T05:42:28.331Z,991.22
2022-08-03T05:43:29.743Z,991.2
2022-08-03T05:44:31.875Z,991.21
2022-08-03T05:45:33.432Z,991.19
2022-08-03T05:46:35.163Z,991.21
2022-08-03T05:47:36.759Z,991.18
2022-08-03T05:48:38.507Z,991.19
2022-08-03T05:49:40.642Z,991.15
2022-08-03T05:50:42.996Z,991.21
2022-08-03T05:51:43.754Z,991.2
2022-08-03T05:52:45.787Z,991.16
2022-08-03T05:53:47.256Z,991.19
2022-08-03T05:54:55.841Z,991.2
2022-08-03T05:55:55.395Z,991.19
2022-08-03T05:56:52.358Z,991.2
2022-08-03T05:57:55.192Z,991.18
2022-08-03T05:58:55.993Z,991.2
2022-08-03T05:59:58.601Z,991.18
2022-08-03T06:00:59.387Z,991.2
2022-08-03T06:02:01.314Z,991.15
2022-08-03T06:03:03.159Z,991.11
2022-08-03T06:04:04.604Z,991.16
2022-08-03T06:05:06.386Z,991.13
2022-08-03T06:06:08.315Z,991.14
2022-08-03T06:07:09.828Z,991.15
2022-08-03T06:08:11.708Z,991.16
2022-08-03T06:09:13.389Z,991.17
2022-08-03T06:10:35.886Z,991.19
2022-08-03T06:11:16.989Z,991.14
2022-08-03T06:12:18.936Z,991.12
2022-08-03T06:13:20.451Z,991.13
2022-08-03T06:14:21.968Z,991.14
2022-08-03T06:15:23.790Z,991.11
2022-08-03T06:16:25.332Z,991.13
2022-08-03T06:17:28.195Z,991.14
2022-08-03T06:18:29.168Z,991.16
2022-08-03T06:19:31.104Z,991.14
2022-08-03T06:20:32.183Z,991.09
2022-08-03T06:21:34.230Z,991.13
2022-08-03T06:22:35.968Z,991.11
2022-08-03T06:23:53.926Z,991.16
2022-08-03T06:24:39.523Z,991.16
2022-08-03T06:25:41.552Z,991.14
2022-08-03T06:26:42.596Z,991.15
2022-08-03T06:27:44.885Z,991.17
2022-08-03T06:28:53.265Z,991.16
2022-08-03T06:29:47.995Z,991.13
2022-08-03T06:30:49.806Z,991.13
2022-08-03T06:31:51.720Z,991.12
2022-08-03T06:32:53.214Z,991.13
2022-08-03T06:34:33.306Z,991.09
2022-08-03T06:34:56.787Z,991.09
2022-08-03T06:35:58.415Z,991.11
2022-08-03T06:37:02.351Z,991.1
2022-08-03T06:38:02.695Z,991.11
2022-08-03T06:39:03.790Z,991.08
2022-08-03T06:40:05.336Z,991.05
2022-08-03T06:41:06.874Z,991.08
2022-08-03T06:42:08.779Z,991.06
2022-08-03T06:43:12.545Z,991.08
2022-08-03T06:44:12.454Z,991.08
2022-08-03T06:45:14.053Z,991.06
2022-08-03T06:46:15.861Z,991.05
2022-08-03T06:47:17.625Z,991.08
2022-08-03T06:48:19.110Z,991.07
2022-08-03T06:49:21.303Z,991.09
2022-08-03T06:50:26.050Z,991.11
2022-08-03T06:52:04.258Z,991.1
2022-08-03T06:52:37.871Z,991.12
2022-08-03T06:53:28.120Z,991.09
2022-08-03T06:54:32.860Z,991.08
2022-08-03T06:55:31.910Z,991.08
2022-08-03T06:56:33.212Z,991.1
2022-08-03T06:57:34.958Z,991.07
2022-08-03T06:58:36.601Z,991.09
2022-08-03T07:00:09.554Z,991.1
2022-08-03T07:00:40.270Z,991.12
2022-08-03T07:01:42.704Z,991.06
2022-08-03T07:02:44.107Z,991.06
2022-08-03T07:03:52.485Z,991.11
2022-08-03T07:04:47.346Z,991.09
2022-08-03T07:05:48.996Z,991.1
2022-08-03T07:06:51.422Z,991.07
2022-08-03T07:07:53.227Z,991.1
2022-08-03T07:08:59.002Z,991.11
2022-08-03T07:09:57.805Z,991.08
2022-08-03T07:10:57.027Z,991.09
2022-08-03T07:11:59.205Z,991.08
2022-08-03T07:13:01.167Z,991.04
2022-08-03T07:14:03.021Z,991.13
2022-08-03T07:15:04.505Z,991.11
2022-08-03T07:16:06.257Z,991.1
2022-08-03T07:17:11.597Z,991.12
2022-08-03T07:18:09.458Z,991.13
2022-08-03T07:19:11.615Z,991.15
2022-08-03T07:20:12.828Z,991.16
2022-08-03T07:21:14.688Z,991.15
2022-08-03T07:22:16.607Z,991.19
2022-08-03T07:23:19.034Z,991.17
2022-08-03T07:24:19.910Z,991.15
2022-08-03T07:25:22.029Z,991.16
2022-08-03T07:26:23.122Z,991.23
2022-08-03T07:27:25.083Z,991.25
2022-08-03T07:28:26.836Z,991.25
2022-08-03T07:29:28.628Z,991.27
2022-08-03T07:30:30.712Z,991.28
2022-08-03T07:31:34.469Z,991.27
2022-08-03T07:32:33.868Z,991.25
2022-08-03T07:33:35.536Z,991.26
2022-08-03T07:34:37.247Z,991.25
2022-08-03T07:35:38.946Z,991.25
2022-08-03T07:36:40.738Z,991.26
2022-08-03T07:37:42.221Z,991.27
2022-08-03T07:38:44.004Z,991.27
2022-08-03T07:39:45.792Z,991.3
2022-08-03T07:40:47.489Z,991.3
2022-08-03T07:41:49.220Z,991.33
2022-08-03T07:42:52.218Z,991.31
2022-08-03T07:43:52.805Z,991.34
2022-08-03T07:44:54.511Z,991.33
2022-08-03T07:45:56.135Z,991.3
2022-08-03T07:46:58.100Z,991.26
2022-08-03T07:47:59.792Z,991.28
2022-08-03T07:49:01.819Z,991.28
2022-08-03T07:50:03.218Z,991.3
2022-08-03T07:51:04.872Z,991.3
2022-08-03T07:52:06.822Z,991.27
2022-08-03T07:53:08.577Z,991.28
2022-08-03T07:54:10.297Z,991.28
2022-08-03T07:55:12.452Z,991.24
2022-08-03T07:56:13.579Z,991.2
2022-08-03T07:57:15.335Z,991.25
2022-08-03T07:58:22.099Z,991.23
2022-08-03T07:59:18.998Z,991.25
2022-08-03T08:00:21.769Z,991.24
2022-08-03T08:01:23.221Z,991.22
2022-08-03T08:02:24.869Z,991.24
2022-08-03T08:03:26.414Z,991.25
2022-08-03T08:04:28.420Z,991.23
2022-08-03T08:05:29.684Z,991.24
2022-08-03T08:06:31.304Z,991.25
2022-08-03T08:07:33.396Z,991.24
2022-08-03T08:08:34.663Z,991.29
2022-08-03T08:09:36.064Z,991.2
2022-08-03T08:10:37.769Z,991.2
2022-08-03T08:11:40.133Z,991.17
2022-08-03T08:12:41.192Z,991.2
2022-08-03T08:13:43.098Z,991.16
2022-08-03T08:14:44.751Z,991.14
2022-08-03T08:15:46.668Z,991.14
2022-08-03T08:16:48.289Z,991.09
2022-08-03T08:17:49.981Z,991.11
2022-08-03T08:18:52.269Z,991.07
2022-08-03T08:19:53.636Z,991.06
2022-08-03T08:20:55.103Z,991.1
2022-08-03T08:22:02.408Z,991.09
2022-08-03T08:22:58.665Z,991.05
2022-08-03T08:24:00.503Z,991.08
2022-08-03T08:25:02.310Z,991.1
2022-08-03T08:26:04.893Z,991.13
2022-08-03T08:27:05.612Z,991.1
2022-08-03T08:28:30.528Z,991.13
2022-08-03T08:29:09.090Z,991.13
2022-08-03T08:30:13.913Z,991.13
2022-08-03T08:31:13.158Z,991.15
2022-08-03T08:32:14.213Z,991.07
2022-08-03T08:33:22.518Z,991.09
2022-08-03T08:34:17.618Z,991.09
2022-08-03T08:35:19.549Z,991.11
2022-08-03T08:36:21.230Z,991.1
2022-08-03T08:37:22.961Z,991.12
2022-08-03T08:38:24.714Z,991.07
2022-08-03T08:39:26.241Z,991.09
2022-08-03T08:40:28.153Z,991.09
2022-08-03T08:41:32.362Z,991.05
2022-08-03T08:42:31.546Z,991.06
2022-08-03T08:43:33.397Z,991.04
2022-08-03T08:44:35.053Z,991.06
2022-08-03T08:45:36.769Z,991.12
2022-08-03T08:46:38.433Z,991.09
2022-08-03T08:47:51.750Z,991.07
2022-08-03T08:48:42.516Z,991.11
2022-08-03T08:49:58.209Z,991.05
2022-08-03T08:50:45.570Z,991.07
2022-08-03T08:51:59.524Z,991.07
2022-08-03T08:52:49.026Z,991.06
2022-08-03T08:53:50.767Z,991.05
2022-08-03T08:54:52.360Z,991.04
2022-08-03T08:55:59.399Z,991.08
2022-08-03T08:56:55.641Z,991.06
2022-08-03T08:57:57.413Z,991.06
2022-08-03T08:58:59.442Z,990.99
2022-08-03T09:00:01.089Z,991.09
2022-08-03T09:01:06.328Z,991.03
2022-08-03T09:02:04.955Z,991.01
2022-08-03T09:03:06.517Z,990.98
2022-08-03T09:04:08.564Z,990.97
2022-08-03T09:05:10.200Z,991
2022-08-03T09:06:11.873Z,991
2022-08-03T09:07:19.995Z,991.03
2022-08-03T09:08:15.037Z,991.04
2022-08-03T09:10:00.271Z,991
2022-08-03T09:10:18.462Z,991.05
2022-08-03T09:11:20.241Z,991.06
2022-08-03T09:12:40.969Z,991.03
2022-08-03T09:13:23.728Z,991.03
2022-08-03T09:14:37.070Z,991.03
2022-08-03T09:15:27.122Z,991.01
2022-08-03T09:16:28.835Z,991.01
2022-08-03T09:17:30.663Z,991.02
2022-08-03T09:18:33.262Z,991.03
2022-08-03T09:19:34.106Z,991.03
2022-08-03T09:20:35.848Z,991.02
2022-08-03T09:21:37.610Z,991.01
2022-08-03T09:22:39.241Z,990.99
2022-08-03T09:23:51.645Z,991.02
2022-08-03T09:24:43.496Z,991.02
2022-08-03T09:25:44.419Z,990.99
2022-08-03T09:26:46.217Z,991.01
2022-08-03T09:27:47.934Z,990.99
2022-08-03T09:29:01.492Z,990.99
2022-08-03T09:29:51.499Z,990.99
2022-08-03T09:30:53.645Z,990.93
2022-08-03T09:31:55.305Z,990.93
2022-08-03T09:32:56.643Z,990.95
2022-08-03T09:33:58.299Z,990.96
2022-08-03T09:35:00.051Z,990.97
2022-08-03T09:36:01.838Z,990.98
2022-08-03T09:37:03.702Z,990.96
2022-08-03T09:38:11.925Z,990.98
2022-08-03T09:39:06.985Z,990.92
2022-08-03T09:40:08.800Z,990.95
2022-08-03T09:41:10.545Z,990.96
2022-08-03T09:42:14.882Z,990.96
2022-08-03T09:43:14.023Z,990.97
2022-08-03T09:44:24.663Z,990.95
2022-08-03T09:45:17.329Z,990.94
2022-08-03T09:46:18.990Z,990.95
2022-08-03T09:47:22.791Z,990.94
2022-08-03T09:48:22.869Z,990.87
2022-08-03T09:49:24.723Z,990.87
2022-08-03T09:50:25.982Z,990.88
2022-08-03T09:51:33.203Z,990.89
2022-08-03T09:52:38.651Z,990.91
2022-08-03T09:53:31.275Z,990.91
2022-08-03T09:54:33.074Z,990.92
2022-08-03T09:56:33.620Z,990.88
2022-08-03T09:56:37.184Z,990.91
2022-08-03T09:57:38.207Z,990.92
2022-08-03T09:58:39.938Z,990.88
2022-08-03T09:59:41.711Z,990.88
2022-08-03T10:00:43.969Z,990.86
2022-08-03T10:01:45.815Z,990.88
2022-08-03T10:02:47.255Z,990.88
2022-08-03T10:04:04.379Z,990.86
2022-08-03T10:04:50.981Z,990.87
2022-08-03T10:05:57.455Z,990.85
2022-08-03T10:06:54.049Z,990.85
2022-08-03T10:07:55.544Z,990.84
2022-08-03T10:08:57.285Z,990.79
2022-08-03T10:10:30.603Z,990.8
2022-08-03T10:11:00.614Z,990.77
2022-08-03T10:12:02.967Z,990.74
2022-08-03T10:13:04.291Z,990.73
2022-08-03T10:14:06.033Z,990.7
2022-08-03T10:15:07.640Z,990.68
2022-08-03T10:16:21.153Z,990.64
2022-08-03T10:17:11.233Z,990.67
2022-08-03T10:18:13.047Z,990.65
2022-08-03T10:19:14.628Z,990.66
2022-08-03T10:20:16.488Z,990.64
2022-08-03T10:21:18.111Z,990.6
2022-08-03T10:22:19.772Z,990.61
2022-08-03T10:23:21.697Z,990.57
2022-08-03T10:24:23.347Z,990.54
2022-08-03T10:25:33.170Z,990.59
2022-08-03T10:26:26.814Z,990.54
2022-08-03T10:27:28.557Z,990.55
2022-08-03T10:28:30.424Z,990.55
2022-08-03T10:29:32.014Z,990.53
2022-08-03T10:30:34.360Z,990.54
2022-08-03T10:31:35.952Z,990.54
2022-08-03T10:32:37.546Z,990.55
2022-08-03T10:33:49.593Z,990.52
2022-08-03T10:34:44.413Z,990.5
2022-08-03T10:35:42.620Z,990.48
2022-08-03T10:36:44.212Z,990.51
2022-08-03T10:37:56.434Z,990.48
2022-08-03T10:38:47.655Z,990.42
2022-08-03T10:39:49.202Z,990.41
2022-08-03T10:40:54.559Z,990.44
2022-08-03T10:41:52.935Z,990.43
2022-08-03T10:42:54.600Z,990.42
2022-08-03T10:43:57.787Z,990.4
2022-08-03T10:44:58.014Z,990.42
2022-08-03T10:45:59.853Z,990.38
2022-08-03T10:47:01.706Z,990.39
2022-08-03T10:48:03.218Z,990.35
2022-08-03T10:49:05.100Z,990.35
2022-08-03T10:50:06.887Z,990.3
2022-08-03T10:51:08.607Z,990.3
2022-08-03T10:52:13.430Z,990.3
2022-08-03T10:53:11.951Z,990.27
2022-08-03T10:54:13.781Z,990.25
2022-08-03T10:55:15.389Z,990.22
2022-08-03T10:56:17.175Z,990.21
2022-08-03T10:57:18.881Z,990.21
2022-08-03T10:58:30.470Z,990.18
2022-08-03T10:59:27.535Z,990.13
2022-08-03T11:00:24.651Z,990.16
2022-08-03T11:01:26.115Z,990.1
2022-08-03T11:02:27.945Z,990.12
2022-08-03T11:03:29.443Z,990.11
2022-08-03T11:04:31.138Z,990.15
2022-08-03T11:05:33.029Z,990.18
2022-08-03T11:06:37.201Z,990.11
2022-08-03T11:07:36.097Z,990.17
2022-08-03T11:08:37.968Z,990.15
2022-08-03T11:09:39.645Z,990.18
2022-08-03T11:10:41.331Z,990.16
2022-08-03T11:11:43.046Z,990.15
2022-08-03T11:12:44.753Z,990.15
2022-08-03T11:13:46.215Z,990.17
2022-08-03T11:14:48.244Z,990.09
2022-08-03T11:15:50.008Z,990.16
2022-08-03T11:16:51.719Z,990.14
2022-08-03T11:17:55.964Z,990.12
2022-08-03T11:18:55.066Z,990.09
2022-08-03T11:19:58.335Z,990.14
2022-08-03T11:20:58.664Z,990.09
2022-08-03T11:22:00.326Z,990.05
2022-08-03T11:23:02.728Z,990.07
2022-08-03T11:24:06.683Z,990.06
2022-08-03T11:25:05.635Z,990.02
2022-08-03T11:26:07.290Z,990.04
2022-08-03T11:27:09.088Z,990
2022-08-03T11:28:10.830Z,990.02
2022-08-03T11:29:12.488Z,990.01
2022-08-03T11:30:14.550Z,990.02
2022-08-03T11:31:39.228Z,990.02
2022-08-03T11:32:19.683Z,990.04
2022-08-03T11:33:19.690Z,990.03
2022-08-03T11:34:21.054Z,990
2022-08-03T11:35:22.840Z,990.05
2022-08-03T11:36:32.213Z,990
2022-08-03T11:37:31.368Z,990.01
2022-08-03T11:38:28.137Z,989.98
2022-08-03T11:39:29.868Z,990.02
2022-08-03T11:40:31.587Z,990
2022-08-03T11:41:33.422Z,990.01
2022-08-03T11:42:35.057Z,989.98
2022-08-03T11:43:36.790Z,990.01
2022-08-03T11:44:38.322Z,989.99
2022-08-03T11:45:40.377Z,990
2022-08-03T11:46:41.997Z,989.99
2022-08-03T11:47:50.647Z,989.96
2022-08-03T11:48:45.261Z,990.03
2022-08-03T11:49:47.232Z,990.04
2022-08-03T11:50:48.679Z,990
2022-08-03T11:51:50.570Z,990.04
2022-08-03T11:52:52.399Z,990.03
2022-08-03T11:53:54.133Z,990.03
2022-08-03T11:54:57.104Z,990.02
2022-08-03T11:55:57.601Z,990.02
2022-08-03T11:56:59.269Z,989.97
2022-08-03T11:59:00.756Z,989.97
2022-08-03T11:59:18.072Z,989.97
2022-08-03T12:00:04.626Z,989.94
2022-08-03T12:01:06.541Z,989.95
2022-08-03T12:02:08.474Z,989.97
2022-08-03T12:03:10.261Z,989.93
2022-08-03T12:04:11.588Z,989.93
2022-08-03T12:05:13.961Z,989.92
2022-08-03T12:06:15.177Z,989.88
2022-08-03T12:08:02.470Z,989.92
2022-08-03T12:08:18.237Z,989.88
2022-08-03T12:09:21.368Z,989.9
2022-08-03T12:10:21.943Z,989.85
2022-08-03T12:11:23.577Z,989.86
2022-08-03T12:12:25.988Z,989.88
2022-08-03T12:14:45.267Z,989.87
2022-08-03T12:14:48.492Z,989.86
2022-08-03T12:15:30.607Z,989.85
2022-08-03T12:16:32.592Z,989.83
2022-08-03T12:17:33.987Z,989.88
2022-08-03T12:18:35.782Z,989.86
2022-08-03T12:19:37.517Z,989.88
2022-08-03T12:20:39.195Z,989.91
2022-08-03T12:21:40.725Z,989.88
2022-08-03T12:22:42.652Z,989.86
2022-08-03T12:23:44.441Z,989.82
2022-08-03T12:24:47.402Z,989.87
2022-08-03T12:25:47.786Z,989.85
2022-08-03T12:26:58.794Z,989.85
2022-08-03T12:27:51.131Z,989.85
2022-08-03T12:28:53.406Z,989.83
2022-08-03T12:29:58.452Z,989.85
2022-08-03T12:30:56.999Z,989.82
2022-08-03T12:31:58.727Z,989.79
2022-08-03T12:33:00.479Z,989.81
2022-08-03T12:34:01.874Z,989.78
2022-08-03T12:35:03.624Z,989.76
2022-08-03T12:36:05.324Z,989.75
2022-08-03T12:37:22.293Z,989.76
2022-08-03T12:38:08.725Z,989.74
2022-08-03T12:39:10.552Z,989.73
2022-08-03T12:40:15.171Z,989.73
2022-08-03T12:41:13.880Z,989.71
2022-08-03T12:42:15.631Z,989.72
2022-08-03T12:43:17.157Z,989.69
2022-08-03T12:44:19.091Z,989.71
2022-08-03T12:45:20.843Z,989.72
2022-08-03T12:46:22.578Z,989.71
2022-08-03T12:47:24.302Z,989.76
2022-08-03T12:48:27.912Z,989.67
2022-08-03T12:49:27.909Z,989.69
2022-08-03T12:50:29.539Z,989.68
2022-08-03T12:51:32.242Z,989.62
2022-08-03T12:52:33.529Z,989.64
2022-08-03T12:53:35.529Z,989.63